Travis Air Force Base
KSUU : now visible

Airfield :











YOU CAN JOIN US ON...

 
LOGIN :

Register | Disclaimer

   EN    FR    IT 

 









Legend :    VFR   Marginal VFR   IFR   Intensive IFR   Very Intensive IFR
Visi :
Ceiling :
>= 8 km
>= 3000ft
5 to 8 km
1000 to 3000 ft
1500m to 5 km
500 to 1000 ft
800 to 1500m
200 to 500 ft
< 800m
< 200 ft
Symbols :   Thunderstorms  Fog  Heavy snow  Heavy precipitations  Wind > 20 kt






- Airport Elevation : 62 ft


KSUU - Travis Air Force Base

CURRENT METAR :
  • 120216Z AUTO 00000KT 4SM -DZ BR OVC023 12/11 A3019 RMK AO2 VIS 1 3/8 RWY03L RAE00DZB16 CIG 009 RWY03L CIG 009 RWY03R CIG 009 RWY21R SLP230 $

EXPIRED METARs :
  • 120200Z AUTO 09004KT 4SM BR FEW011 OVC022 12/11 A3018 RMK AO2 VIS 1 RWY03L RAE00 CIG 008 RWY03L CIG 009 RWY03R CIG 009 RWY21R SLP227 $
  • 120140Z AUTO 07003KT 4SM -RA BR SCT010 OVC021 12/11 A3020 RMK AO2 VIS 1 RWY03L RAB25 CIG 010V021 CIG 008 RWY03L CIG 008 RWY03R CIG 008 RWY21R SLP234 $
  • 120130Z AUTO 07005KT 4SM -RA BR BKN010 OVC023 12/11 A3020 RMK AO2 VIS 1 RWY03L RAB25 CIG 008V010 CIG 008 RWY03L CIG 008 RWY03R CIG 008 RWY21R SLP234 $
  • 120058Z AUTO 00000KT 3SM BR BKN008 OVC020 12/11 A3022 RMK AO2 VIS 1 RWY03L VIS 2 1/2 RWY03R VIS 2 1/2 RWY21R CIG 008V020 BKN V SCT SLP240 T01170108 $
  • 120053Z AUTO 06003KT 2 1/4SM BR SCT008 OVC020 12/11 A3021 RMK AO2 VIS 2 1/4V2 3/4 VIS 1/2 RWY03L CIG 019 RWY03L SLP237 $
  • 120028Z AUTO 00000KT 2 1/2SM BR SCT006 OVC018 12/11 A3022 RMK AO2 VIS 1/2 RWY03L CIG 006V018 SLP240 $
  • 120008Z AUTO 08004KT 2 1/2SM BR BKN006 OVC010 12/11 A3022 RMK AO2 VIS 1 7/8V2 1/2 VIS 1/2 RWY03L VIS 1 3/4 RWY03R VIS 1 7/8 RWY03R/21L VIS 1 3/4 RWY21R CIG 006V008 CIG 005 RWY03R CIG 005 RWY21R SLP240 $
  • 120003Z AUTO 08004KT 2SM BR OVC008 12/11 A3022 RMK AO2 VIS 1/2 RWY03L OVC V BKN CIG 007 RWY03L CIG 005 RWY03R CIG 005 RWY21R SLP240 $
  • 112350Z AUTO 07004KT 2SM BR OVC009 12/11 A3022 RMK AO2 VIS 1 7/8V2 1/2 VIS 1/2 RWY03L VIS 1 1/2 RWY03R VIS 1 1/2 RWY21R RAB03E15 CIG 007V009 CIG 007 RWY03R CIG 007 RWY21R SLP240 $
  • 112345Z AUTO 06003KT 2 1/4SM BR BKN007 OVC011 12/11 A3021 RMK AO2 VIS 1/2 RWY03L VIS 1 3/8 RWY03R VIS 1 3/8 RWY21R RAB03E15 CIG 006V009 SLP237 $
  • 112325Z AUTO 07003KT 2SM BR BKN006 OVC011 12/11 A3022 RMK AO2 VIS 5/8 RWY03L VIS 1 1/2 RWY03R VIS 1 1/2 RWY21R RAB03E15 CIG 006V011 SLP240 $

TAF TAF KSUU
Valid from the 11 at 19:00 until the 13 at 01:00 UTC


111902Z 1119/1301 VRB06KT 4000 BR OVC005 QNH3019INS
TEMPO 1119/1212 1000 -SHRA BR BKN019
BECMG 1211/1212 VRB06KT 4800 BR OVC005 QNH3020INS
TEMPO 1212/1218 3200 BR BKN019
BECMG 1217/1218 VRB06KT 4800 BR BKN030 QNH3023INS TX15/1122Z TN10/1212Z



MET'MAP, your aeronautical weather chart ! - Copyright ORBIFLY December 2007 - Disclaimer

ORBIFLY MET'MAP TEAM :

Programming & Development : Alexandra Zaïnal
Concept & original design : Baudouin d'Aumeries
Assistance for programming : Marc-Olivier Méhu
Technical & hardware support : Manuel Goepfert

Contact : metmap@orbifly.com




SOURCES & CREDITS :

   NOAA       Earth
Advisory